createdAt,value
2022-08-26T00:00:20.659Z,19.79
2022-08-26T00:02:49.391Z,19.74
2022-08-26T00:05:20.024Z,19.71
2022-08-26T00:07:48.766Z,19.65
2022-08-26T00:10:18.075Z,19.58
2022-08-26T00:12:48.113Z,19.52
2022-08-26T00:15:19.920Z,19.49
2022-08-26T00:17:49.799Z,19.44
2022-08-26T00:20:21.522Z,19.42
2022-08-26T00:22:49.906Z,19.38
2022-08-26T00:25:19.417Z,19.37
2022-08-26T00:27:49.738Z,19.35
2022-08-26T00:30:24.261Z,19.31
2022-08-26T00:32:56.018Z,19.31
2022-08-26T00:35:25.331Z,19.27
2022-08-26T00:37:57.115Z,19.21
2022-08-26T00:40:29.123Z,19.19
2022-08-26T00:42:59.702Z,19.15
2022-08-26T00:45:28.700Z,19.12
2022-08-26T00:47:59.939Z,19.08
2022-08-26T00:50:32.130Z,19.07
2022-08-26T00:53:02.139Z,19.07
2022-08-26T00:55:34.626Z,19.05
2022-08-26T00:58:08.843Z,19.08
2022-08-26T01:00:37.770Z,19.05
2022-08-26T01:03:07.466Z,19.04
2022-08-26T01:05:40.844Z,19.05
2022-08-26T01:08:09.591Z,19.11
2022-08-26T01:10:37.950Z,19.13
2022-08-26T01:13:11.382Z,19.14
2022-08-26T01:15:44.560Z,19.17
2022-08-26T01:18:14.711Z,19.15
2022-08-26T01:20:52.461Z,19.15
2022-08-26T01:23:32.677Z,19.14
2022-08-26T01:26:03.742Z,19.16
2022-08-26T01:28:35.975Z,19.17
2022-08-26T01:31:06.944Z,19.16
2022-08-26T01:33:42.155Z,19.16
2022-08-26T01:36:12.742Z,19.19
2022-08-26T01:38:43.207Z,19.25
2022-08-26T01:41:19.528Z,19.24
2022-08-26T01:43:49.777Z,19.24
2022-08-26T01:46:19.177Z,19.21
2022-08-26T01:48:47.918Z,19.17
2022-08-26T01:51:21.705Z,19.16
2022-08-26T01:53:51.957Z,19.18
2022-08-26T01:56:23.375Z,19.17
2022-08-26T01:58:53.344Z,19.15
2022-08-26T02:01:23.063Z,19.15
2022-08-26T02:04:04.284Z,19.19
2022-08-26T02:06:33.560Z,19.19
2022-08-26T02:09:06.174Z,19.22
2022-08-26T02:11:36.777Z,19.21
2022-08-26T02:14:07.664Z,19.19
2022-08-26T02:16:42.247Z,19.14
2022-08-26T02:19:17.331Z,19.10
2022-08-26T02:21:51.038Z,19.05
2022-08-26T02:24:27.576Z,19.01
2022-08-26T02:26:58.260Z,19.01
2022-08-26T02:29:31.746Z,19.00
2022-08-26T02:32:00.231Z,18.99
2022-08-26T02:34:32.085Z,18.98
2022-08-26T02:37:01.902Z,19.07
2022-08-26T02:39:32.618Z,19.06
2022-08-26T02:42:01.762Z,19.08
2022-08-26T02:44:30.693Z,19.05
2022-08-26T02:46:59.782Z,18.94
2022-08-26T02:49:30.505Z,18.87
2022-08-26T02:52:01.959Z,18.83
2022-08-26T02:54:32.147Z,18.78
2022-08-26T02:57:02.720Z,18.72
2022-08-26T02:59:32.115Z,18.65
2022-08-26T03:02:01.923Z,18.56
2022-08-26T03:04:33.378Z,18.48
2022-08-26T03:07:02.750Z,18.42
2022-08-26T03:09:32.919Z,18.34
2022-08-26T03:12:01.606Z,18.27
2022-08-26T03:14:30.786Z,18.20
2022-08-26T03:16:59.674Z,18.16
2022-08-26T03:19:27.969Z,18.10
2022-08-26T03:21:57.822Z,18.09
2022-08-26T03:24:27.029Z,18.11
2022-08-26T03:26:57.282Z,18.11
2022-08-26T03:29:42.968Z,18.14
2022-08-26T03:32:11.947Z,18.14
2022-08-26T03:34:40.718Z,18.13
2022-08-26T03:37:09.443Z,18.13
2022-08-26T03:39:38.361Z,18.17
2022-08-26T03:42:08.677Z,18.18
2022-08-26T03:44:42.013Z,18.19
2022-08-26T03:47:11.070Z,18.21
2022-08-26T03:49:39.586Z,18.22
2022-08-26T03:52:08.387Z,18.19
2022-08-26T03:54:37.224Z,18.20
2022-08-26T03:57:06.322Z,18.21
2022-08-26T03:59:36.819Z,18.23
2022-08-26T04:02:08.461Z,18.27
2022-08-26T04:04:39.888Z,18.30
2022-08-26T04:07:09.024Z,18.33
2022-08-26T04:09:37.761Z,18.41
2022-08-26T04:12:09.372Z,18.47
2022-08-26T04:14:39.999Z,18.51
2022-08-26T04:17:08.788Z,18.60
2022-08-26T04:19:37.108Z,18.70
2022-08-26T04:22:06.269Z,18.81
2022-08-26T04:24:34.878Z,18.88
2022-08-26T04:27:03.746Z,19.00
2022-08-26T04:29:32.990Z,19.14
2022-08-26T04:32:04.664Z,19.27
2022-08-26T04:34:34.443Z,19.40
2022-08-26T04:37:03.160Z,19.52
2022-08-26T04:39:32.268Z,19.64
2022-08-26T04:42:01.734Z,19.77
2022-08-26T04:44:31.776Z,19.85
2022-08-26T04:47:00.569Z,19.94
2022-08-26T04:49:35.233Z,20.00
2022-08-26T04:52:05.276Z,20.11
2022-08-26T04:54:33.985Z,20.20
2022-08-26T04:57:02.705Z,20.35
2022-08-26T04:59:32.618Z,20.49
2022-08-26T05:02:03.934Z,20.65
2022-08-26T05:04:36.198Z,20.75
2022-08-26T05:07:06.364Z,20.86
2022-08-26T05:09:34.867Z,21.02
2022-08-26T05:12:03.719Z,21.17
2022-08-26T05:14:33.441Z,21.29
2022-08-26T05:17:02.996Z,21.50
2022-08-26T05:19:31.666Z,21.63
2022-08-26T05:22:02.971Z,21.60
2022-08-26T05:24:31.458Z,21.73
2022-08-26T05:27:00.101Z,22.05
2022-08-26T05:29:28.819Z,22.35
2022-08-26T05:31:57.568Z,22.64
2022-08-26T05:34:30.328Z,23.03
2022-08-26T05:36:59.753Z,23.39
2022-08-26T05:39:29.942Z,23.70
2022-08-26T05:42:00.012Z,23.88
2022-08-26T05:44:28.710Z,24.02
2022-08-26T05:46:57.407Z,24.21
2022-08-26T05:49:26.673Z,24.44
2022-08-26T05:51:55.318Z,24.67
2022-08-26T05:54:24.152Z,24.58
2022-08-26T05:56:54.189Z,24.63
2022-08-26T05:59:24.569Z,24.73
2022-08-26T06:01:53.459Z,24.75
2022-08-26T06:04:23.113Z,24.59
2022-08-26T06:06:56.198Z,24.49
2022-08-26T06:09:26.789Z,24.46
2022-08-26T06:11:59.334Z,24.42
2022-08-26T06:14:28.140Z,24.56
2022-08-26T06:16:56.748Z,24.73
2022-08-26T06:19:25.850Z,24.86
2022-08-26T06:22:23.412Z,25.00
2022-08-26T06:25:10.111Z,25.32
2022-08-26T06:27:40.331Z,25.64
2022-08-26T06:30:10.109Z,25.68
2022-08-26T06:32:39.249Z,25.81
2022-08-26T06:35:12.127Z,25.45
2022-08-26T06:37:41.245Z,25.54
2022-08-26T06:40:11.569Z,25.27
2022-08-26T06:42:42.447Z,25.34
2022-08-26T06:45:12.569Z,25.32
2022-08-26T06:47:41.304Z,25.48
2022-08-26T06:50:10.396Z,25.36
2022-08-26T06:52:38.813Z,25.57
2022-08-26T06:55:08.353Z,26.05
2022-08-26T06:57:41.109Z,26.43
2022-08-26T07:00:13.787Z,26.59
2022-08-26T07:02:47.014Z,26.77
2022-08-26T07:05:16.256Z,26.89
2022-08-26T07:07:44.591Z,27.10
2022-08-26T07:10:13.480Z,27.33
2022-08-26T07:12:43.421Z,27.53
2022-08-26T07:15:17.621Z,27.82
2022-08-26T07:17:52.649Z,28.11
2022-08-26T07:20:21.322Z,28.54
2022-08-26T07:22:49.692Z,29.74
2022-08-26T07:25:19.310Z,31.66
2022-08-26T07:27:54.041Z,33.32
2022-08-26T07:30:25.678Z,35.08
2022-08-26T07:32:57.697Z,36.60
2022-08-26T07:35:27.395Z,37.66
2022-08-26T07:37:57.186Z,38.75
2022-08-26T07:40:26.504Z,39.81
2022-08-26T07:42:55.413Z,40.23
2022-08-26T07:45:25.771Z,40.68
2022-08-26T07:47:54.698Z,41.06
2022-08-26T07:50:48.786Z,41.28
2022-08-26T07:53:12.569Z,42.26
2022-08-26T07:55:43.366Z,42.93
2022-08-26T07:58:13.175Z,42.89
2022-08-26T08:00:43.456Z,43.35
2022-08-26T08:03:15.021Z,43.86
2022-08-26T08:05:48.709Z,43.73
2022-08-26T08:08:26.648Z,43.44
2022-08-26T08:10:57.305Z,43.01
2022-08-26T08:13:26.384Z,41.59
2022-08-26T08:15:56.569Z,40.08
2022-08-26T08:18:25.374Z,38.87
2022-08-26T08:21:05.048Z,37.81
2022-08-26T08:23:43.279Z,36.90
2022-08-26T08:26:13.322Z,36.28
2022-08-26T08:28:41.786Z,35.53
2022-08-26T08:31:38.770Z,34.91
2022-08-26T08:34:09.227Z,34.76
2022-08-26T08:36:38.002Z,33.80
2022-08-26T08:39:07.244Z,34.03
2022-08-26T08:41:45.071Z,34.15
2022-08-26T08:44:16.514Z,34.04
2022-08-26T08:46:46.871Z,34.32
2022-08-26T08:49:16.791Z,34.28
2022-08-26T08:51:51.018Z,33.53
2022-08-26T08:54:22.034Z,33.92
2022-08-26T08:56:53.906Z,34.29
2022-08-26T08:59:24.265Z,35.16
2022-08-26T09:02:02.381Z,35.62
2022-08-26T09:04:46.788Z,35.46
2022-08-26T09:07:18.984Z,34.99
2022-08-26T09:09:51.449Z,35.30
2022-08-26T09:12:29.534Z,36.09
2022-08-26T09:15:03.058Z,36.73
2022-08-26T09:17:41.210Z,37.08
2022-08-26T09:20:15.957Z,37.90
2022-08-26T09:22:44.431Z,39.19
2022-08-26T09:25:15.042Z,40.80
2022-08-26T09:27:46.087Z,41.62
2022-08-26T09:30:17.181Z,41.74
2022-08-26T09:32:59.328Z,41.07
2022-08-26T09:35:31.779Z,41.85
2022-08-26T09:38:00.646Z,43.01
2022-08-26T09:40:34.530Z,43.14
2022-08-26T09:43:09.371Z,42.14
2022-08-26T09:45:39.498Z,42.09
2022-08-26T09:48:10.260Z,40.96
2022-08-26T09:50:54.884Z,40.91
2022-08-26T09:53:30.260Z,40.74
2022-08-26T09:56:14.633Z,40.70
2022-08-26T09:58:45.428Z,40.90
2022-08-26T10:01:18.118Z,39.65
2022-08-26T10:03:50.125Z,39.33
2022-08-26T10:06:28.111Z,38.68
2022-08-26T10:08:59.268Z,38.62
2022-08-26T10:11:35.503Z,38.99
2022-08-26T10:14:07.197Z,40.46
2022-08-26T10:16:48.912Z,41.48
2022-08-26T10:19:23.369Z,39.78
2022-08-26T10:21:55.536Z,39.98
2022-08-26T10:24:27.524Z,41.07
2022-08-26T10:27:01.532Z,43.52
2022-08-26T10:29:34.504Z,44.06
2022-08-26T10:32:07.372Z,43.34
2022-08-26T10:34:43.918Z,43.21
2022-08-26T10:37:16.731Z,43.96
2022-08-26T10:39:57.250Z,44.22
2022-08-26T10:42:30.336Z,44.10
2022-08-26T10:45:06.376Z,45.74
2022-08-26T10:47:44.806Z,45.88
2022-08-26T10:50:15.241Z,45.27
2022-08-26T10:52:56.490Z,48.12
2022-08-26T10:55:31.250Z,52.25
2022-08-26T10:58:09.091Z,53.92
2022-08-26T11:01:01.087Z,53.03
2022-08-26T11:03:35.220Z,52.68
2022-08-26T11:06:26.354Z,51.49
2022-08-26T11:08:56.955Z,51.34
2022-08-26T11:11:46.692Z,52.83
2022-08-26T11:14:46.172Z,54.87
2022-08-26T11:17:58.031Z,54.31
2022-08-26T11:20:37.491Z,55.18
2022-08-26T11:23:40.495Z,57.18
2022-08-26T11:26:35.533Z,57.03
2022-08-26T11:29:12.209Z,56.32
2022-08-26T11:31:57.559Z,56.27
2022-08-26T11:34:56.336Z,54.11
2022-08-26T11:37:30.987Z,54.94
2022-08-26T11:40:05.012Z,54.46
2022-08-26T11:42:38.895Z,54.67
2022-08-26T11:45:18.241Z,56.30
2022-08-26T11:47:49.385Z,56.00
2022-08-26T11:50:23.492Z,49.76
2022-08-26T11:52:53.614Z,52.32
2022-08-26T11:55:24.605Z,49.96
2022-08-26T11:57:54.946Z,51.21
2022-08-26T12:00:25.139Z,52.23
2022-08-26T12:02:55.756Z,51.46
2022-08-26T12:05:30.936Z,50.85
2022-08-26T12:08:04.117Z,49.85
2022-08-26T12:10:35.569Z,47.08
2022-08-26T12:13:06.395Z,46.05
2022-08-26T12:15:36.225Z,43.84
2022-08-26T12:18:28.867Z,42.30
2022-08-26T12:21:00.882Z,41.07
2022-08-26T12:23:43.406Z,41.51
2022-08-26T12:26:22.427Z,41.88
2022-08-26T12:28:57.480Z,43.54
2022-08-26T12:31:31.615Z,45.45
2022-08-26T12:34:02.976Z,48.49
2022-08-26T12:36:33.810Z,50.08
2022-08-26T12:39:10.508Z,46.65
2022-08-26T12:41:47.707Z,44.95
2022-08-26T12:44:53.843Z,43.15
2022-08-26T12:47:30.837Z,44.48
2022-08-26T12:50:13.281Z,44.48
2022-08-26T12:52:45.353Z,43.31
2022-08-26T12:55:21.749Z,39.95
2022-08-26T12:57:51.967Z,40.25
2022-08-26T13:00:42.602Z,41.37
2022-08-26T13:03:43.471Z,41.12
2022-08-26T13:06:18.245Z,43.09
2022-08-26T13:08:48.086Z,45.09
2022-08-26T13:11:20.564Z,45.69
2022-08-26T13:13:53.309Z,45.72
2022-08-26T13:16:23.369Z,45.30
2022-08-26T13:18:54.110Z,46.53
2022-08-26T13:21:25.497Z,46.88
2022-08-26T13:23:55.017Z,47.34
2022-08-26T13:26:23.881Z,47.65
2022-08-26T13:29:01.916Z,47.65
2022-08-26T13:31:33.156Z,45.80
2022-08-26T13:34:03.006Z,45.56
2022-08-26T13:36:31.840Z,42.70
2022-08-26T13:39:00.852Z,42.58
2022-08-26T13:41:29.909Z,42.04
2022-08-26T13:44:00.418Z,41.01
2022-08-26T13:46:30.277Z,40.14
2022-08-26T13:48:59.431Z,38.82
2022-08-26T13:51:29.112Z,37.95
2022-08-26T13:53:58.692Z,37.22
2022-08-26T13:56:29.775Z,36.86
2022-08-26T13:59:01.283Z,35.93
2022-08-26T14:01:32.553Z,37.60
2022-08-26T14:04:03.243Z,39.24
2022-08-26T14:06:32.189Z,41.13
2022-08-26T14:09:01.117Z,40.95
2022-08-26T14:11:29.813Z,40.44
2022-08-26T14:14:09.379Z,40.93
2022-08-26T14:16:59.635Z,41.11
2022-08-26T14:19:29.747Z,41.49
2022-08-26T14:22:00.955Z,42.20
2022-08-26T14:24:31.194Z,42.55
2022-08-26T14:26:59.962Z,42.51
2022-08-26T14:29:30.145Z,42.33
2022-08-26T14:31:59.794Z,42.42
2022-08-26T14:34:28.323Z,42.50
2022-08-26T14:36:56.852Z,38.46
2022-08-26T14:39:25.569Z,38.00
2022-08-26T14:41:56.673Z,38.49
2022-08-26T14:44:30.775Z,39.01
2022-08-26T14:47:02.284Z,39.79
2022-08-26T14:49:31.482Z,39.62
2022-08-26T14:52:00.293Z,36.72
2022-08-26T14:54:30.085Z,37.85
2022-08-26T14:57:01.190Z,38.86
2022-08-26T14:59:33.223Z,39.77
2022-08-26T15:02:02.261Z,39.77
2022-08-26T15:04:32.283Z,39.25
2022-08-26T15:07:01.823Z,38.70
2022-08-26T15:09:33.187Z,39.39
2022-08-26T15:12:02.638Z,38.03
2022-08-26T15:14:33.143Z,37.89
2022-08-26T15:17:02.558Z,39.51
2022-08-26T15:19:31.113Z,39.99
2022-08-26T15:21:59.893Z,40.67
2022-08-26T15:24:29.873Z,40.99
2022-08-26T15:26:58.816Z,41.42
2022-08-26T15:29:27.749Z,42.00
2022-08-26T15:31:57.632Z,40.90
2022-08-26T15:34:27.040Z,38.44
2022-08-26T15:36:55.822Z,36.83
2022-08-26T15:39:24.677Z,36.63
2022-08-26T15:41:53.346Z,37.27
2022-08-26T15:44:22.144Z,38.59
2022-08-26T15:46:55.317Z,39.69
2022-08-26T15:49:28.220Z,40.53
2022-08-26T15:51:56.930Z,40.87
2022-08-26T15:54:25.902Z,41.29
2022-08-26T15:56:54.769Z,40.25
2022-08-26T15:59:23.836Z,39.56
2022-08-26T16:01:52.735Z,39.71
2022-08-26T16:04:21.856Z,40.05
2022-08-26T16:06:52.333Z,40.85
2022-08-26T16:09:24.436Z,41.19
2022-08-26T16:11:53.684Z,41.02
2022-08-26T16:14:22.510Z,41.42
2022-08-26T16:16:51.133Z,41.53
2022-08-26T16:19:20.181Z,42.10
2022-08-26T16:21:50.873Z,42.20
2022-08-26T16:24:24.774Z,42.42
2022-08-26T16:26:56.399Z,41.69
2022-08-26T16:29:26.144Z,40.70
2022-08-26T16:31:54.915Z,39.64
2022-08-26T16:34:23.805Z,38.90
2022-08-26T16:36:53.173Z,37.78
2022-08-26T16:39:23.335Z,36.64
2022-08-26T16:41:52.199Z,35.36
2022-08-26T16:44:22.289Z,34.50
2022-08-26T16:46:50.741Z,33.54
2022-08-26T16:49:27.265Z,32.64
2022-08-26T16:51:56.074Z,31.97
2022-08-26T16:54:26.383Z,31.37
2022-08-26T16:56:55.126Z,30.88
2022-08-26T16:59:24.171Z,30.58
2022-08-26T17:01:52.627Z,30.30
2022-08-26T17:04:22.086Z,30.04
2022-08-26T17:06:51.091Z,29.81
2022-08-26T17:09:19.880Z,29.61
2022-08-26T17:11:50.444Z,29.43
2022-08-26T17:14:19.680Z,29.25
2022-08-26T17:16:51.292Z,29.08
2022-08-26T17:19:20.478Z,28.93
2022-08-26T17:21:49.438Z,28.79
2022-08-26T17:24:18.532Z,28.61
2022-08-26T17:26:48.352Z,28.47
2022-08-26T17:29:20.927Z,28.32
2022-08-26T17:31:49.217Z,28.16
2022-08-26T17:34:18.020Z,28.07
2022-08-26T17:36:46.828Z,27.96
2022-08-26T17:39:15.627Z,27.83
2022-08-26T17:41:44.871Z,27.68
2022-08-26T17:44:13.606Z,27.55
2022-08-26T17:46:43.315Z,27.38
2022-08-26T17:49:11.796Z,27.25
2022-08-26T17:51:41.093Z,27.14
2022-08-26T17:54:09.757Z,27.07
2022-08-26T17:56:38.490Z,26.93
2022-08-26T17:59:07.156Z,26.79
2022-08-26T18:01:36.654Z,26.68
2022-08-26T18:04:06.902Z,26.57
2022-08-26T18:06:35.808Z,26.48
2022-08-26T18:09:05.154Z,26.37
2022-08-26T18:11:34.549Z,26.30
2022-08-26T18:14:03.297Z,26.22
2022-08-26T18:16:38.197Z,26.11
2022-08-26T18:19:08.712Z,26.05
2022-08-26T18:21:37.481Z,26.01
2022-08-26T18:24:08.314Z,25.94
2022-08-26T18:26:41.560Z,25.80
2022-08-26T18:29:11.270Z,25.73
2022-08-26T18:31:39.780Z,25.73
2022-08-26T18:34:12.926Z,25.71
2022-08-26T18:36:41.753Z,25.69
2022-08-26T18:39:11.060Z,25.64
2022-08-26T18:41:44.348Z,25.57
2022-08-26T18:44:14.331Z,25.50
2022-08-26T18:46:42.892Z,25.43
2022-08-26T18:49:13.811Z,25.36
2022-08-26T18:51:44.339Z,25.30
2022-08-26T18:54:13.436Z,25.27
2022-08-26T18:56:43.831Z,25.21
2022-08-26T18:59:13.712Z,25.16
2022-08-26T19:01:43.447Z,25.12
2022-08-26T19:04:15.577Z,25.09
2022-08-26T19:06:45.142Z,25.01
2022-08-26T19:09:14.595Z,24.94
2022-08-26T19:11:43.813Z,24.88
2022-08-26T19:14:14.944Z,24.78
2022-08-26T19:16:44.634Z,24.70
2022-08-26T19:19:15.270Z,24.61
2022-08-26T19:21:44.233Z,24.52
2022-08-26T19:24:15.766Z,24.43
2022-08-26T19:26:45.373Z,24.38
2022-08-26T19:29:14.551Z,24.34
2022-08-26T19:31:43.973Z,24.27
2022-08-26T19:34:14.252Z,24.20
2022-08-26T19:36:46.675Z,24.14
2022-08-26T19:39:15.666Z,24.08
2022-08-26T19:41:44.559Z,24.03
2022-08-26T19:44:35.918Z,24.00
2022-08-26T19:47:04.980Z,23.94
2022-08-26T19:49:35.346Z,23.88
2022-08-26T19:52:04.608Z,23.85
2022-08-26T19:54:33.380Z,23.79
2022-08-26T19:57:02.047Z,23.73
2022-08-26T19:59:33.205Z,23.66
2022-08-26T20:02:02.339Z,23.61
2022-08-26T20:04:31.438Z,23.55
2022-08-26T20:07:05.726Z,23.48
2022-08-26T20:09:35.497Z,23.43
2022-08-26T20:12:06.092Z,23.37
2022-08-26T20:14:35.690Z,23.32
2022-08-26T20:17:05.258Z,23.25
2022-08-26T20:19:51.352Z,23.21
2022-08-26T20:22:22.192Z,23.18
2022-08-26T20:24:51.814Z,23.13
2022-08-26T20:27:22.385Z,23.11
2022-08-26T20:29:51.133Z,23.09
2022-08-26T20:32:20.454Z,23.02
2022-08-26T20:34:49.454Z,22.97
2022-08-26T20:37:18.585Z,22.95
2022-08-26T20:39:52.002Z,22.94
2022-08-26T20:42:20.771Z,22.88
2022-08-26T20:44:54.212Z,22.82
2022-08-26T20:47:24.092Z,22.79
2022-08-26T20:49:52.845Z,22.73
2022-08-26T20:52:21.611Z,22.69
2022-08-26T20:54:51.710Z,22.62
2022-08-26T20:57:22.340Z,22.56
2022-08-26T20:59:51.428Z,22.57
2022-08-26T21:02:20.287Z,22.59
2022-08-26T21:04:48.780Z,22.57
2022-08-26T21:07:17.764Z,22.54
2022-08-26T21:09:46.511Z,22.54
2022-08-26T21:12:16.608Z,22.52
2022-08-26T21:14:49.023Z,22.49
2022-08-26T21:17:18.452Z,22.49
2022-08-26T21:19:46.745Z,22.48
2022-08-26T21:22:15.437Z,22.44
2022-08-26T21:24:44.141Z,22.47
2022-08-26T21:27:12.865Z,22.47
2022-08-26T21:29:47.788Z,22.44
2022-08-26T21:32:17.723Z,22.41
2022-08-26T21:34:46.113Z,22.37
2022-08-26T21:37:16.426Z,22.39
2022-08-26T21:39:45.844Z,22.39
2022-08-26T21:42:14.631Z,22.43
2022-08-26T21:44:50.822Z,22.41
2022-08-26T21:47:23.433Z,22.38
2022-08-26T21:49:52.004Z,22.34
2022-08-26T21:52:22.343Z,22.36
2022-08-26T21:54:51.103Z,22.34
2022-08-26T21:57:20.102Z,22.35
2022-08-26T21:59:49.038Z,22.37
2022-08-26T22:02:18.056Z,22.37
2022-08-26T22:04:48.928Z,22.35
2022-08-26T22:07:19.295Z,22.33
2022-08-26T22:09:48.857Z,22.28
2022-08-26T22:12:18.454Z,22.23
2022-08-26T22:14:47.262Z,22.19
2022-08-26T22:17:17.180Z,22.12
2022-08-26T22:19:48.628Z,22.14
2022-08-26T22:22:18.308Z,22.11
2022-08-26T22:24:47.159Z,22.11
2022-08-26T22:27:15.979Z,22.11
2022-08-26T22:29:46.681Z,22.07
2022-08-26T22:32:15.617Z,22.01
2022-08-26T22:34:44.175Z,21.92
2022-08-26T22:37:14.511Z,21.85
2022-08-26T22:39:43.386Z,21.81
2022-08-26T22:42:12.083Z,21.75
2022-08-26T22:44:41.358Z,21.67
2022-08-26T22:47:10.205Z,21.63
2022-08-26T22:49:38.711Z,21.60
2022-08-26T22:52:07.493Z,21.57
2022-08-26T22:54:37.543Z,21.50
2022-08-26T22:57:06.371Z,21.43
2022-08-26T22:59:35.111Z,21.38
2022-08-26T23:02:03.950Z,21.34
2022-08-26T23:04:32.375Z,21.30
2022-08-26T23:07:03.526Z,21.25
2022-08-26T23:09:32.727Z,21.20
2022-08-26T23:12:02.883Z,21.18
2022-08-26T23:14:31.385Z,21.19
2022-08-26T23:17:00.195Z,21.15
2022-08-26T23:19:28.643Z,21.10
2022-08-26T23:21:57.608Z,21.07
2022-08-26T23:24:26.407Z,21.07
2022-08-26T23:26:55.268Z,21.07
2022-08-26T23:29:25.493Z,21.03
2022-08-26T23:31:54.081Z,21.00
2022-08-26T23:34:40.221Z,20.94
2022-08-26T23:37:10.595Z,20.91
2022-08-26T23:39:39.421Z,20.86
2022-08-26T23:42:08.749Z,20.84
2022-08-26T23:44:39.059Z,20.77
2022-08-26T23:47:08.925Z,20.77
2022-08-26T23:49:37.821Z,20.74
2022-08-26T23:52:24.572Z,20.74
2022-08-26T23:54:53.567Z,20.75
2022-08-26T23:57:24.138Z,20.77
2022-08-26T23:59:54.476Z,20.78
